createdAt,value
2023-01-25T00:02:20.189Z,2.06
2023-01-25T00:04:47.469Z,2.05
2023-01-25T00:07:14.663Z,2.06
2023-01-25T00:09:41.956Z,2.08
2023-01-25T00:12:09.256Z,2.10
2023-01-25T00:14:36.452Z,2.07
2023-01-25T00:17:03.702Z,2.11
2023-01-25T00:19:31.194Z,2.14
2023-01-25T00:21:58.462Z,2.15
2023-01-25T00:24:26.403Z,2.16
2023-01-25T00:26:53.687Z,2.15
2023-01-25T00:29:20.911Z,2.14
2023-01-25T00:31:51.636Z,2.13
2023-01-25T00:34:25.142Z,2.12
2023-01-25T00:36:57.033Z,2.12
2023-01-25T00:39:26.162Z,2.16
2023-01-25T00:41:53.389Z,2.20
2023-01-25T00:44:20.738Z,2.22
2023-01-25T00:46:48.267Z,2.23
2023-01-25T00:49:23.037Z,2.23
2023-01-25T00:51:50.607Z,2.25
2023-01-25T00:54:18.285Z,2.23
2023-01-25T00:56:46.360Z,2.26
2023-01-25T00:59:13.980Z,2.25
2023-01-25T01:01:42.157Z,2.28
2023-01-25T01:04:09.712Z,2.29
2023-01-25T01:06:38.094Z,2.32
2023-01-25T01:09:06.287Z,2.34
2023-01-25T01:11:34.022Z,2.32
2023-01-25T01:14:01.218Z,2.30
2023-01-25T01:16:30.939Z,2.29
2023-01-25T01:18:58.246Z,2.28
2023-01-25T01:21:25.664Z,2.21
2023-01-25T01:23:54.454Z,2.19
2023-01-25T01:26:21.676Z,2.14
2023-01-25T01:28:49.611Z,2.12
2023-01-25T01:31:19.908Z,2.12
2023-01-25T01:33:56.522Z,2.13
2023-01-25T01:36:25.635Z,2.13
2023-01-25T01:38:52.899Z,2.11
2023-01-25T01:41:20.557Z,2.12
2023-01-25T01:43:48.347Z,2.09
2023-01-25T01:46:29.218Z,2.09
2023-01-25T01:49:06.607Z,2.08
2023-01-25T01:51:43.185Z,2.07
2023-01-25T01:54:15.045Z,2.08
2023-01-25T01:56:56.573Z,2.08
2023-01-25T01:59:26.740Z,2.07
2023-01-25T02:01:54.834Z,2.02
2023-01-25T02:04:23.086Z,2.04
2023-01-25T02:07:13.825Z,2.04
2023-01-25T02:09:42.048Z,2.05
2023-01-25T02:12:09.732Z,2.04
2023-01-25T02:14:37.861Z,2.06
2023-01-25T02:17:05.339Z,2.08
2023-01-25T02:19:38.832Z,2.08
2023-01-25T02:22:10.388Z,2.08
2023-01-25T02:24:39.985Z,2.09
2023-01-25T02:27:07.223Z,2.10
2023-01-25T02:29:34.922Z,2.08
2023-01-25T02:32:05.817Z,2.06
2023-01-25T02:34:33.121Z,2.06
2023-01-25T02:37:00.754Z,2.06
2023-01-25T02:39:28.493Z,2.08
2023-01-25T02:41:55.812Z,2.07
2023-01-25T02:44:32.175Z,2.07
2023-01-25T02:47:00.709Z,2.06
2023-01-25T02:49:27.953Z,2.06
2023-01-25T02:51:57.515Z,2.05
2023-01-25T02:54:26.962Z,2.08
2023-01-25T02:56:54.973Z,2.10
2023-01-25T02:59:24.310Z,2.12
2023-01-25T03:01:55.658Z,2.14
2023-01-25T03:04:23.307Z,2.13
2023-01-25T03:06:50.624Z,2.13
2023-01-25T03:09:18.786Z,2.11
2023-01-25T03:11:48.749Z,2.12
2023-01-25T03:14:17.677Z,2.13
2023-01-25T03:16:44.956Z,2.13
2023-01-25T03:19:12.845Z,2.14
2023-01-25T03:21:41.675Z,2.16
2023-01-25T03:24:10.081Z,2.16
2023-01-25T03:27:01.487Z,2.18
2023-01-25T03:29:41.822Z,2.14
2023-01-25T03:32:14.350Z,2.17
2023-01-25T03:34:41.667Z,2.17
2023-01-25T03:37:09.734Z,2.18
2023-01-25T03:39:39.162Z,2.18
2023-01-25T03:42:07.528Z,2.18
2023-01-25T03:44:34.730Z,2.19
2023-01-25T03:47:02.477Z,2.19
2023-01-25T03:49:30.798Z,2.18
2023-01-25T03:51:58.785Z,2.14
2023-01-25T03:54:36.072Z,2.14
2023-01-25T03:57:03.814Z,2.11
2023-01-25T03:59:35.643Z,2.11
2023-01-25T04:02:03.096Z,2.11
2023-01-25T04:04:30.525Z,2.16
2023-01-25T04:06:57.751Z,2.18
2023-01-25T04:09:25.639Z,2.19
2023-01-25T04:11:56.593Z,2.18
2023-01-25T04:14:42.511Z,2.16
2023-01-25T04:17:13.079Z,2.12
2023-01-25T04:20:00.597Z,2.08
2023-01-25T04:22:35.184Z,2.08
2023-01-25T04:25:04.369Z,2.09
2023-01-25T04:27:32.583Z,2.08
2023-01-25T04:30:06.006Z,2.07
2023-01-25T04:32:36.755Z,2.06
2023-01-25T04:35:08.784Z,2.04
2023-01-25T04:37:36.624Z,2.04
2023-01-25T04:40:04.317Z,2.04
2023-01-25T04:42:36.515Z,2.05
2023-01-25T04:45:04.962Z,2.07
2023-01-25T04:47:32.359Z,2.06
2023-01-25T04:49:59.727Z,2.06
2023-01-25T04:52:30.220Z,2.06
2023-01-25T04:54:57.525Z,2.09
2023-01-25T04:57:25.362Z,2.09
2023-01-25T04:59:53.359Z,2.11
2023-01-25T05:02:23.029Z,2.08
2023-01-25T05:04:50.427Z,2.05
2023-01-25T05:07:20.306Z,2.02
2023-01-25T05:09:47.791Z,1.96
2023-01-25T05:12:15.105Z,1.88
2023-01-25T05:14:59.360Z,1.80
2023-01-25T05:17:26.657Z,1.72
2023-01-25T05:19:54.005Z,1.70
2023-01-25T05:22:23.751Z,1.63
2023-01-25T05:24:54.309Z,1.58
2023-01-25T05:27:22.265Z,1.58
2023-01-25T05:29:56.014Z,1.56
2023-01-25T05:32:50.553Z,1.53
2023-01-25T05:35:18.228Z,1.52
2023-01-25T05:37:46.198Z,1.52
2023-01-25T05:40:22.135Z,1.52
2023-01-25T05:43:00.224Z,1.48
2023-01-25T05:45:30.342Z,1.49
2023-01-25T05:47:59.050Z,1.50
2023-01-25T05:50:33.870Z,1.48
2023-01-25T05:53:05.131Z,1.49
2023-01-25T05:55:35.488Z,1.54
2023-01-25T05:58:06.505Z,1.57
2023-01-25T06:00:33.768Z,1.59
2023-01-25T06:03:02.418Z,1.60
2023-01-25T06:05:31.934Z,1.60
2023-01-25T06:07:59.791Z,1.64
2023-01-25T06:10:33.260Z,1.66
2023-01-25T06:13:00.653Z,1.64
2023-01-25T06:15:28.165Z,1.64
2023-01-25T06:18:01.283Z,1.67
2023-01-25T06:20:40.031Z,1.73
2023-01-25T06:23:07.337Z,1.77
2023-01-25T06:25:34.698Z,1.81
2023-01-25T06:28:01.939Z,1.85
2023-01-25T06:30:29.353Z,1.83
2023-01-25T06:32:59.762Z,1.84
2023-01-25T06:35:27.456Z,1.85
2023-01-25T06:37:58.280Z,1.87
2023-01-25T06:40:26.045Z,1.84
2023-01-25T06:42:53.401Z,1.82
2023-01-25T06:45:20.661Z,1.86
2023-01-25T06:47:48.973Z,1.89
2023-01-25T06:50:16.333Z,1.97
2023-01-25T06:52:43.535Z,1.96
2023-01-25T06:55:14.023Z,1.93
2023-01-25T06:57:43.735Z,1.94
2023-01-25T07:00:11.404Z,1.96
2023-01-25T07:02:38.780Z,2.01
2023-01-25T07:05:06.351Z,1.97
2023-01-25T07:07:33.702Z,1.93
2023-01-25T07:10:02.135Z,1.93
2023-01-25T07:12:30.633Z,1.94
2023-01-25T07:14:57.914Z,2.02
2023-01-25T07:17:25.264Z,2.06
2023-01-25T07:19:54.574Z,2.10
2023-01-25T07:22:21.872Z,2.10
2023-01-25T07:24:50.942Z,2.09
2023-01-25T07:27:18.285Z,2.11
2023-01-25T07:29:45.556Z,2.12
2023-01-25T07:32:15.040Z,2.18
2023-01-25T07:34:42.795Z,2.17
2023-01-25T07:37:10.279Z,2.20
2023-01-25T07:39:37.824Z,2.14
2023-01-25T07:42:05.269Z,2.12
2023-01-25T07:44:33.155Z,2.11
2023-01-25T07:47:18.410Z,2.13
2023-01-25T07:49:45.601Z,2.11
2023-01-25T07:52:12.888Z,2.13
2023-01-25T07:54:40.114Z,2.06
2023-01-25T07:57:07.386Z,2.03
2023-01-25T07:59:34.629Z,2.07
2023-01-25T08:02:01.869Z,2.09
2023-01-25T08:04:29.129Z,2.11
2023-01-25T08:06:56.699Z,2.12
2023-01-25T08:09:23.969Z,2.15
2023-01-25T08:11:51.459Z,2.20
2023-01-25T08:14:18.747Z,2.28
2023-01-25T08:16:46.041Z,2.35
2023-01-25T08:19:13.342Z,2.37
2023-01-25T08:21:40.988Z,2.39
2023-01-25T08:24:08.638Z,2.38
2023-01-25T08:26:36.408Z,2.38
2023-01-25T08:29:04.165Z,2.39
2023-01-25T08:31:32.670Z,2.44
2023-01-25T08:34:00.520Z,2.48
2023-01-25T08:36:28.359Z,2.51
2023-01-25T08:38:57.074Z,2.49
2023-01-25T08:41:24.744Z,2.46
2023-01-25T08:43:53.609Z,2.46
2023-01-25T08:46:21.472Z,2.49
2023-01-25T08:48:48.950Z,2.50
2023-01-25T08:51:16.735Z,2.49
2023-01-25T08:53:44.081Z,2.47
2023-01-25T08:56:13.355Z,2.49
2023-01-25T08:58:42.039Z,2.52
2023-01-25T09:01:10.937Z,2.57
2023-01-25T09:03:39.114Z,2.59
2023-01-25T09:06:06.920Z,2.60
2023-01-25T09:08:34.651Z,2.50
2023-01-25T09:11:12.464Z,2.49
2023-01-25T09:13:44.223Z,2.45
2023-01-25T09:16:13.977Z,2.45
2023-01-25T09:18:42.417Z,2.45
2023-01-25T09:21:11.388Z,2.46
2023-01-25T09:23:50.828Z,2.45
2023-01-25T09:26:18.962Z,2.44
2023-01-25T09:28:50.973Z,2.44
2023-01-25T09:31:22.797Z,2.51
2023-01-25T09:34:14.595Z,2.45
2023-01-25T09:36:42.233Z,2.41
2023-01-25T09:39:12.957Z,2.34
2023-01-25T09:41:46.027Z,2.31
2023-01-25T09:44:31.801Z,2.31
2023-01-25T09:47:02.145Z,2.29
2023-01-25T09:49:29.517Z,2.35
2023-01-25T09:52:07.884Z,2.33
2023-01-25T09:54:47.162Z,2.36
2023-01-25T09:57:17.836Z,2.30
2023-01-25T09:59:47.396Z,2.32
2023-01-25T10:02:33.040Z,2.22
2023-01-25T10:05:20.697Z,2.18
2023-01-25T10:08:02.248Z,2.14
2023-01-25T10:10:39.789Z,2.12
2023-01-25T10:13:11.354Z,2.08
2023-01-25T10:15:44.544Z,1.97
2023-01-25T10:18:19.391Z,1.93
2023-01-25T10:20:53.473Z,2.00
2023-01-25T10:23:33.418Z,1.85
2023-01-25T10:26:06.046Z,1.71
2023-01-25T10:29:03.069Z,1.68
2023-01-25T10:31:41.631Z,1.66
2023-01-25T10:34:17.255Z,1.54
2023-01-25T10:36:45.889Z,1.54
2023-01-25T10:39:13.132Z,1.46
2023-01-25T10:41:47.528Z,1.40
2023-01-25T10:44:29.221Z,1.55
2023-01-25T10:47:15.206Z,1.41
2023-01-25T10:49:50.608Z,1.44
2023-01-25T10:52:21.590Z,1.51
2023-01-25T10:55:06.643Z,1.47
2023-01-25T10:57:35.656Z,1.62
2023-01-25T11:00:11.285Z,1.54
2023-01-25T11:02:41.306Z,1.57
2023-01-25T11:05:23.802Z,1.66
2023-01-25T11:07:51.168Z,1.61
2023-01-25T11:10:32.554Z,1.56
2023-01-25T11:13:16.720Z,1.72
2023-01-25T11:15:53.498Z,1.67
2023-01-25T11:18:25.553Z,1.53
2023-01-25T11:21:15.136Z,1.41
2023-01-25T11:23:42.423Z,1.49
2023-01-25T11:26:17.658Z,1.48
2023-01-25T11:28:45.816Z,1.61
2023-01-25T11:31:14.280Z,1.54
2023-01-25T11:33:42.443Z,1.51
2023-01-25T11:36:31.735Z,1.53
2023-01-25T11:39:04.252Z,1.65
2023-01-25T11:41:35.062Z,1.79
2023-01-25T11:44:15.082Z,1.90
2023-01-25T11:46:45.990Z,1.99
2023-01-25T11:49:26.491Z,2.06
2023-01-25T11:52:06.552Z,2.12
2023-01-25T11:54:49.748Z,2.18
2023-01-25T11:57:20.017Z,2.23
2023-01-25T12:00:05.948Z,2.28
2023-01-25T12:02:51.434Z,2.35
2023-01-25T12:05:21.934Z,2.42
2023-01-25T12:07:55.571Z,2.40
2023-01-25T12:10:29.665Z,2.25
2023-01-25T12:13:06.581Z,2.06
2023-01-25T12:15:33.835Z,2.00
2023-01-25T12:18:19.678Z,1.92
2023-01-25T12:20:59.193Z,1.91
2023-01-25T12:23:32.467Z,1.96
2023-01-25T12:26:13.409Z,1.89
2023-01-25T12:28:42.680Z,1.89
2023-01-25T12:31:36.595Z,1.81
2023-01-25T12:34:05.321Z,1.76
2023-01-25T12:36:39.722Z,1.80
2023-01-25T12:39:07.110Z,1.65
2023-01-25T12:41:46.632Z,1.68
2023-01-25T12:44:32.801Z,1.59
2023-01-25T12:47:15.010Z,1.53
2023-01-25T12:49:52.234Z,1.49
2023-01-25T12:52:32.141Z,1.44
2023-01-25T12:55:06.215Z,1.60
2023-01-25T12:57:57.388Z,1.57
2023-01-25T13:00:34.086Z,1.43
2023-01-25T13:03:11.291Z,1.32
2023-01-25T13:05:38.505Z,1.29
2023-01-25T13:08:30.147Z,1.33
2023-01-25T13:11:14.326Z,1.44
2023-01-25T13:13:47.408Z,1.59
2023-01-25T13:16:31.174Z,1.44
2023-01-25T13:18:58.746Z,1.39
2023-01-25T13:21:45.353Z,1.38
2023-01-25T13:24:14.383Z,1.38
2023-01-25T13:26:48.685Z,1.37
2023-01-25T13:29:28.257Z,1.39
2023-01-25T13:31:59.196Z,1.40
2023-01-25T13:34:43.090Z,1.40
2023-01-25T13:37:13.795Z,1.41
2023-01-25T13:39:42.163Z,1.45
2023-01-25T13:42:09.359Z,1.47
2023-01-25T13:44:39.609Z,1.56
2023-01-25T13:47:10.683Z,1.61
2023-01-25T13:49:41.075Z,1.63
2023-01-25T13:52:14.679Z,1.57
2023-01-25T13:54:48.991Z,1.53
2023-01-25T13:57:23.773Z,1.34
2023-01-25T14:00:11.391Z,1.36
2023-01-25T14:02:39.673Z,1.14
2023-01-25T14:05:07.894Z,1.18
2023-01-25T14:07:37.106Z,1.16
2023-01-25T14:10:10.673Z,1.20
2023-01-25T14:12:40.364Z,1.16
2023-01-25T14:15:30.704Z,1.20
2023-01-25T14:18:24.383Z,0.96
2023-01-25T14:20:54.415Z,0.88
2023-01-25T14:23:25.350Z,0.93
2023-01-25T14:25:54.077Z,1.03
2023-01-25T14:28:21.851Z,0.99
2023-01-25T14:30:53.540Z,0.97
2023-01-25T14:33:20.811Z,0.97
2023-01-25T14:35:59.977Z,1.00
2023-01-25T14:38:33.467Z,1.01
2023-01-25T14:41:07.674Z,1.09
2023-01-25T14:43:38.110Z,1.07
2023-01-25T14:46:19.787Z,1.30
2023-01-25T14:48:47.271Z,1.08
2023-01-25T14:51:17.102Z,0.91
2023-01-25T14:53:46.783Z,0.93
2023-01-25T14:56:20.104Z,0.96
2023-01-25T14:58:59.073Z,0.75
2023-01-25T15:01:33.078Z,0.66
2023-01-25T15:04:00.404Z,0.67
2023-01-25T15:06:30.665Z,0.53
2023-01-25T15:08:59.267Z,0.61
2023-01-25T15:11:49.101Z,0.49
2023-01-25T15:14:18.274Z,0.57
2023-01-25T15:16:45.781Z,0.58
2023-01-25T15:19:34.749Z,0.52
2023-01-25T15:22:01.939Z,0.58
2023-01-25T15:24:29.147Z,0.57
2023-01-25T15:26:57.099Z,0.61
2023-01-25T15:29:28.900Z,0.67
2023-01-25T15:31:56.280Z,0.80
2023-01-25T15:34:26.066Z,0.62
2023-01-25T15:36:53.344Z,0.53
2023-01-25T15:39:20.822Z,0.75
2023-01-25T15:41:48.221Z,0.70
2023-01-25T15:44:15.664Z,0.55
2023-01-25T15:46:45.176Z,0.56
2023-01-25T15:49:21.267Z,0.58
2023-01-25T15:51:48.519Z,0.69
2023-01-25T15:54:15.821Z,0.68
2023-01-25T15:56:43.719Z,0.67
2023-01-25T15:59:15.667Z,0.65
2023-01-25T16:01:43.428Z,0.73
2023-01-25T16:04:13.605Z,0.87
2023-01-25T16:06:45.091Z,0.83
2023-01-25T16:09:15.482Z,0.81
2023-01-25T16:11:43.401Z,0.81
2023-01-25T16:14:11.253Z,0.80
2023-01-25T16:16:40.584Z,0.73
2023-01-25T16:19:07.914Z,0.73
2023-01-25T16:21:35.167Z,0.72
2023-01-25T16:24:02.496Z,0.78
2023-01-25T16:26:29.895Z,0.73
2023-01-25T16:28:57.255Z,0.74
2023-01-25T16:31:33.009Z,0.77
2023-01-25T16:34:01.300Z,0.61
2023-01-25T16:36:29.083Z,0.49
2023-01-25T16:38:56.496Z,0.49
2023-01-25T16:41:24.084Z,0.57
2023-01-25T16:43:53.660Z,0.55
2023-01-25T16:46:22.560Z,0.49
2023-01-25T16:48:51.410Z,0.49
2023-01-25T16:51:18.793Z,0.54
2023-01-25T16:53:46.657Z,0.62
2023-01-25T16:56:18.427Z,0.80
2023-01-25T16:58:46.320Z,0.61
2023-01-25T17:01:14.238Z,0.55
2023-01-25T17:03:41.806Z,0.55
2023-01-25T17:06:15.392Z,0.51
2023-01-25T17:08:42.718Z,0.59
2023-01-25T17:11:09.919Z,0.50
2023-01-25T17:13:37.279Z,0.40
2023-01-25T17:16:04.688Z,0.36
2023-01-25T17:18:34.515Z,0.41
2023-01-25T17:21:05.099Z,0.48
2023-01-25T17:23:33.521Z,0.48
2023-01-25T17:26:08.425Z,0.36
2023-01-25T17:28:36.195Z,0.27
2023-01-25T17:31:03.803Z,0.35
2023-01-25T17:33:33.722Z,0.26
2023-01-25T17:36:01.842Z,0.27
2023-01-25T17:38:29.086Z,0.18
2023-01-25T17:40:56.404Z,0.17
2023-01-25T17:43:23.641Z,0.15
2023-01-25T17:45:51.049Z,0.17
2023-01-25T17:48:18.267Z,0.04
2023-01-25T17:50:45.480Z,-0.04
2023-01-25T17:53:12.714Z,-0.06
2023-01-25T17:55:40.004Z,0.02
2023-01-25T17:58:07.242Z,0.11
2023-01-25T18:00:34.602Z,0.10
2023-01-25T18:03:01.904Z,0.18
2023-01-25T18:05:29.325Z,0.26
2023-01-25T18:07:56.705Z,0.20
2023-01-25T18:10:24.120Z,0.21
2023-01-25T18:13:04.156Z,0.28
2023-01-25T18:15:33.054Z,0.25
2023-01-25T18:18:00.809Z,0.20
2023-01-25T18:20:28.712Z,0.26
2023-01-25T18:22:56.727Z,0.26
2023-01-25T18:25:29.168Z,0.21
2023-01-25T18:27:56.552Z,0.33
2023-01-25T18:30:29.991Z,0.22
2023-01-25T18:32:57.214Z,0.22
2023-01-25T18:35:25.283Z,0.19
2023-01-25T18:37:52.537Z,0.02
2023-01-25T18:40:20.046Z,-0.01
2023-01-25T18:42:47.500Z,0.12
2023-01-25T18:45:14.921Z,0.16
2023-01-25T18:47:42.181Z,0.12
2023-01-25T18:50:12.098Z,0.00
2023-01-25T18:52:39.427Z,-0.15
2023-01-25T18:55:06.972Z,-0.25
2023-01-25T18:57:34.319Z,-0.25
2023-01-25T19:00:01.625Z,-0.32
2023-01-25T19:02:31.285Z,-0.32
2023-01-25T19:05:00.492Z,-0.34
2023-01-25T19:07:28.045Z,-0.41
2023-01-25T19:09:55.516Z,-0.47
2023-01-25T19:12:22.784Z,-0.51
2023-01-25T19:14:50.046Z,-0.47
2023-01-25T19:17:17.437Z,-0.36
2023-01-25T19:19:44.691Z,-0.38
2023-01-25T19:22:11.963Z,-0.48
2023-01-25T19:24:39.211Z,-0.42
2023-01-25T19:27:06.422Z,-0.41
2023-01-25T19:29:33.692Z,-0.37
2023-01-25T19:32:01.003Z,-0.32
2023-01-25T19:34:28.230Z,-0.33
2023-01-25T19:36:55.906Z,-0.41
2023-01-25T19:39:23.236Z,-0.31
2023-01-25T19:41:52.105Z,-0.40
2023-01-25T19:44:19.386Z,-0.50
2023-01-25T19:46:47.111Z,-0.58
2023-01-25T19:49:15.130Z,-0.67
2023-01-25T19:51:45.488Z,-0.63
2023-01-25T19:54:15.908Z,-0.56
2023-01-25T19:56:44.183Z,-0.43
2023-01-25T19:59:12.880Z,-0.46
2023-01-25T20:01:46.689Z,-0.38
2023-01-25T20:04:15.796Z,-0.36
2023-01-25T20:06:43.535Z,-0.35
2023-01-25T20:09:14.301Z,-0.46
2023-01-25T20:11:41.664Z,-0.41
2023-01-25T20:14:11.300Z,-0.47
2023-01-25T20:16:38.605Z,-0.44
2023-01-25T20:19:06.144Z,-0.33
2023-01-25T20:21:33.928Z,-0.26
2023-01-25T20:24:03.480Z,-0.19
2023-01-25T20:26:32.677Z,-0.20
2023-01-25T20:29:00.517Z,-0.40
2023-01-25T20:31:29.382Z,-0.56
2023-01-25T20:34:04.207Z,-0.54
2023-01-25T20:36:32.840Z,-0.58
2023-01-25T20:39:00.118Z,-0.60
2023-01-25T20:41:27.470Z,-0.60
2023-01-25T20:43:54.688Z,-0.54
2023-01-25T20:46:22.028Z,-0.51
2023-01-25T20:48:49.323Z,-0.59
2023-01-25T20:51:21.588Z,-0.60
2023-01-25T20:53:49.722Z,-0.52
2023-01-25T20:56:18.412Z,-0.67
2023-01-25T20:58:50.721Z,-0.52
2023-01-25T21:01:19.776Z,-0.67
2023-01-25T21:03:47.454Z,-0.62
2023-01-25T21:06:15.186Z,-0.56
2023-01-25T21:08:42.436Z,-0.60
2023-01-25T21:11:10.202Z,-0.67
2023-01-25T21:13:37.758Z,-0.71
2023-01-25T21:16:06.762Z,-0.77
2023-01-25T21:18:35.396Z,-0.73
2023-01-25T21:21:04.039Z,-0.66
2023-01-25T21:23:33.559Z,-0.67
2023-01-25T21:26:01.881Z,-0.66
2023-01-25T21:28:29.523Z,-0.65
2023-01-25T21:30:57.157Z,-0.68
2023-01-25T21:33:24.602Z,-0.63
2023-01-25T21:35:54.324Z,-0.54
2023-01-25T21:38:21.759Z,-0.49
2023-01-25T21:40:49.139Z,-0.57
2023-01-25T21:43:18.065Z,-0.66
2023-01-25T21:46:03.801Z,-0.54
2023-01-25T21:48:49.851Z,-0.61
2023-01-25T21:51:49.210Z,-0.59
2023-01-25T21:54:18.806Z,-0.58
2023-01-25T21:56:46.977Z,-0.55
2023-01-25T21:59:14.461Z,-0.52
2023-01-25T22:01:44.288Z,-0.71
2023-01-25T22:04:12.164Z,-0.77
2023-01-25T22:06:40.077Z,-0.68
2023-01-25T22:09:07.703Z,-0.70
2023-01-25T22:11:35.311Z,-0.86
2023-01-25T22:14:02.643Z,-0.96
2023-01-25T22:16:30.524Z,-1.02
2023-01-25T22:18:59.563Z,-0.98
2023-01-25T22:21:32.148Z,-0.87
2023-01-25T22:24:00.410Z,-1.03
2023-01-25T22:26:32.188Z,-1.06
2023-01-25T22:29:00.155Z,-1.13
2023-01-25T22:31:31.374Z,-1.02
2023-01-25T22:33:59.266Z,-1.29
2023-01-25T22:36:27.595Z,-1.26
2023-01-25T22:38:55.406Z,-1.30
2023-01-25T22:41:24.184Z,-1.29
2023-01-25T22:43:51.834Z,-1.31
2023-01-25T22:46:20.571Z,-1.22
2023-01-25T22:48:48.095Z,-1.27
2023-01-25T22:51:17.241Z,-1.25
2023-01-25T22:53:44.600Z,-1.21
2023-01-25T22:56:11.787Z,-1.07
2023-01-25T22:58:39.776Z,-1.04
2023-01-25T23:01:13.072Z,-1.00
2023-01-25T23:03:40.526Z,-1.06
2023-01-25T23:06:08.744Z,-0.95
2023-01-25T23:08:36.976Z,-0.93
2023-01-25T23:11:06.342Z,-0.84
2023-01-25T23:13:33.608Z,-0.86
2023-01-25T23:16:02.588Z,-0.97
2023-01-25T23:18:48.385Z,-1.00
2023-01-25T23:21:16.149Z,-0.93
2023-01-25T23:23:43.384Z,-0.95
2023-01-25T23:26:10.876Z,-0.89
2023-01-25T23:28:38.144Z,-0.93
2023-01-25T23:31:18.814Z,-0.97
2023-01-25T23:33:47.031Z,-0.96
2023-01-25T23:36:18.002Z,-1.04
2023-01-25T23:38:46.348Z,-0.96
2023-01-25T23:41:14.072Z,-1.03
2023-01-25T23:43:41.807Z,-1.02
2023-01-25T23:46:09.377Z,-1.02
2023-01-25T23:48:36.859Z,-0.88
2023-01-25T23:51:04.550Z,-0.86
2023-01-25T23:53:31.841Z,-0.82
2023-01-25T23:56:00.421Z,-0.72
2023-01-25T23:58:28.369Z,-0.75
